sensor_id;sensor_type;location;lat;lon;timestamp;P1;durP1;ratioP1;P2;durP2;ratioP2
9801;SDS011;4940;50.900;4.672;2023-07-13T00:01:50;4.85;;;1.90;;
9801;SDS011;4940;50.900;4.672;2023-07-13T00:04:18;5.60;;;2.03;;
9801;SDS011;4940;50.900;4.672;2023-07-13T00:06:46;6.40;;;2.42;;
9801;SDS011;4940;50.900;4.672;2023-07-13T00:09:14;5.13;;;2.65;;
9801;SDS011;4940;50.900;4.672;2023-07-13T00:11:43;3.55;;;2.17;;
9801;SDS011;4940;50.900;4.672;2023-07-13T00:14:12;5.05;;;2.83;;
9801;SDS011;4940;50.900;4.672;2023-07-13T00:16:41;3.28;;;2.67;;
9801;SDS011;4940;50.900;4.672;2023-07-13T00:19:10;2.88;;;2.40;;
9801;SDS011;4940;50.900;4.672;2023-07-13T00:21:38;5.50;;;3.13;;
9801;SDS011;4940;50.900;4.672;2023-07-13T00:24:06;3.55;;;3.13;;
9801;SDS011;4940;50.900;4.672;2023-07-13T00:26:33;5.35;;;3.40;;
9801;SDS011;4940;50.900;4.672;2023-07-13T00:29:00;4.32;;;3.67;;
9801;SDS011;4940;50.900;4.672;2023-07-13T00:31:27;4.93;;;3.55;;
9801;SDS011;4940;50.900;4.672;2023-07-13T00:33:55;3.75;;;3.40;;
9801;SDS011;4940;50.900;4.672;2023-07-13T00:36:24;6.18;;;4.97;;
9801;SDS011;4940;50.900;4.672;2023-07-13T00:38:51;5.75;;;3.58;;
9801;SDS011;4940;50.900;4.672;2023-07-13T00:41:19;5.53;;;4.32;;
9801;SDS011;4940;50.900;4.672;2023-07-13T00:43:46;5.35;;;4.60;;
9801;SDS011;4940;50.900;4.672;2023-07-13T00:46:21;5.90;;;4.75;;
9801;SDS011;4940;50.900;4.672;2023-07-13T00:48:50;5.80;;;5.20;;
9801;SDS011;4940;50.900;4.672;2023-07-13T00:51:20;8.93;;;5.70;;
9801;SDS011;4940;50.900;4.672;2023-07-13T00:53:52;7.40;;;6.80;;
9801;SDS011;4940;50.900;4.672;2023-07-13T00:56:21;6.25;;;5.75;;
9801;SDS011;4940;50.900;4.672;2023-07-13T00:58:49;7.90;;;7.30;;
9801;SDS011;4940;50.900;4.672;2023-07-13T01:01:16;11.05;;;10.32;;
9801;SDS011;4940;50.900;4.672;2023-07-13T01:03:44;12.57;;;11.82;;
9801;SDS011;4940;50.900;4.672;2023-07-13T01:06:11;13.30;;;12.50;;
9801;SDS011;4940;50.900;4.672;2023-07-13T01:08:40;11.35;;;10.40;;
9801;SDS011;4940;50.900;4.672;2023-07-13T01:11:07;12.73;;;11.73;;
9801;SDS011;4940;50.900;4.672;2023-07-13T01:13:35;14.07;;;13.05;;
9801;SDS011;4940;50.900;4.672;2023-07-13T01:16:03;16.95;;;15.50;;
9801;SDS011;4940;50.900;4.672;2023-07-13T01:18:39;15.80;;;14.60;;
9801;SDS011;4940;50.900;4.672;2023-07-13T01:21:08;15.25;;;14.27;;
9801;SDS011;4940;50.900;4.672;2023-07-13T01:23:35;19.08;;;17.92;;
9801;SDS011;4940;50.900;4.672;2023-07-13T01:26:03;18.50;;;17.45;;
9801;SDS011;4940;50.900;4.672;2023-07-13T01:28:30;19.75;;;18.60;;
9801;SDS011;4940;50.900;4.672;2023-07-13T01:31:02;19.02;;;17.77;;
9801;SDS011;4940;50.900;4.672;2023-07-13T01:33:30;20.63;;;18.92;;
9801;SDS011;4940;50.900;4.672;2023-07-13T01:35:57;19.58;;;18.13;;
9801;SDS011;4940;50.900;4.672;2023-07-13T01:38:26;18.52;;;17.23;;
9801;SDS011;4940;50.900;4.672;2023-07-13T01:40:54;20.25;;;18.80;;
9801;SDS011;4940;50.900;4.672;2023-07-13T01:43:21;23.60;;;22.13;;
9801;SDS011;4940;50.900;4.672;2023-07-13T01:45:48;24.88;;;23.48;;
9801;SDS011;4940;50.900;4.672;2023-07-13T01:48:16;24.70;;;23.25;;
9801;SDS011;4940;50.900;4.672;2023-07-13T01:50:43;25.35;;;23.85;;
9801;SDS011;4940;50.900;4.672;2023-07-13T01:53:10;24.10;;;22.65;;
9801;SDS011;4940;50.900;4.672;2023-07-13T01:55:39;26.27;;;24.52;;
9801;SDS011;4940;50.900;4.672;2023-07-13T01:58:07;23.95;;;22.55;;
9801;SDS011;4940;50.900;4.672;2023-07-13T02:00:34;25.45;;;24.05;;
9801;SDS011;4940;50.900;4.672;2023-07-13T02:03:01;25.77;;;23.90;;
9801;SDS011;4940;50.900;4.672;2023-07-13T02:05:29;30.55;;;28.65;;
9801;SDS011;4940;50.900;4.672;2023-07-13T02:07:56;29.45;;;27.67;;
9801;SDS011;4940;50.900;4.672;2023-07-13T02:10:24;23.80;;;22.40;;
9801;SDS011;4940;50.900;4.672;2023-07-13T02:12:52;31.10;;;28.88;;
9801;SDS011;4940;50.900;4.672;2023-07-13T02:15:20;28.20;;;26.25;;
9801;SDS011;4940;50.900;4.672;2023-07-13T02:17:47;33.30;;;30.77;;
9801;SDS011;4940;50.900;4.672;2023-07-13T02:20:14;30.52;;;28.27;;
9801;SDS011;4940;50.900;4.672;2023-07-13T02:22:42;28.67;;;26.67;;
9801;SDS011;4940;50.900;4.672;2023-07-13T02:25:09;30.30;;;28.20;;
9801;SDS011;4940;50.900;4.672;2023-07-13T02:27:37;31.63;;;29.63;;
9801;SDS011;4940;50.900;4.672;2023-07-13T02:30:06;34.67;;;32.45;;
9801;SDS011;4940;50.900;4.672;2023-07-13T02:32:34;32.38;;;30.27;;
9801;SDS011;4940;50.900;4.672;2023-07-13T02:35:01;28.83;;;26.92;;
9801;SDS011;4940;50.900;4.672;2023-07-13T02:37:29;32.05;;;30.05;;
9801;SDS011;4940;50.900;4.672;2023-07-13T02:39:56;31.20;;;28.85;;
9801;SDS011;4940;50.900;4.672;2023-07-13T02:42:24;34.30;;;32.20;;
9801;SDS011;4940;50.900;4.672;2023-07-13T02:44:51;31.02;;;29.02;;
9801;SDS011;4940;50.900;4.672;2023-07-13T02:47:20;28.45;;;26.65;;
9801;SDS011;4940;50.900;4.672;2023-07-13T02:49:47;32.90;;;30.58;;
9801;SDS011;4940;50.900;4.672;2023-07-13T02:52:14;31.38;;;29.38;;
9801;SDS011;4940;50.900;4.672;2023-07-13T02:54:42;31.85;;;29.70;;
9801;SDS011;4940;50.900;4.672;2023-07-13T02:57:09;30.27;;;28.17;;
9801;SDS011;4940;50.900;4.672;2023-07-13T02:59:36;31.50;;;29.48;;
9801;SDS011;4940;50.900;4.672;2023-07-13T03:02:04;30.85;;;28.67;;
9801;SDS011;4940;50.900;4.672;2023-07-13T03:04:34;32.58;;;30.27;;
9801;SDS011;4940;50.900;4.672;2023-07-13T03:07:02;29.48;;;27.27;;
9801;SDS011;4940;50.900;4.672;2023-07-13T03:09:30;31.08;;;28.85;;
9801;SDS011;4940;50.900;4.672;2023-07-13T03:11:59;31.88;;;29.75;;
9801;SDS011;4940;50.900;4.672;2023-07-13T03:14:26;30.73;;;28.60;;
9801;SDS011;4940;50.900;4.672;2023-07-13T03:16:53;32.70;;;30.33;;
9801;SDS011;4940;50.900;4.672;2023-07-13T03:19:21;30.63;;;28.58;;
9801;SDS011;4940;50.900;4.672;2023-07-13T03:21:50;30.63;;;28.58;;
9801;SDS011;4940;50.900;4.672;2023-07-13T03:24:17;30.90;;;28.98;;
9801;SDS011;4940;50.900;4.672;2023-07-13T03:26:44;33.25;;;30.95;;
9801;SDS011;4940;50.900;4.672;2023-07-13T03:29:11;33.60;;;31.33;;
9801;SDS011;4940;50.900;4.672;2023-07-13T03:31:39;35.60;;;33.17;;
9801;SDS011;4940;50.900;4.672;2023-07-13T03:34:07;31.83;;;29.73;;
9801;SDS011;4940;50.900;4.672;2023-07-13T03:36:34;34.95;;;32.50;;
9801;SDS011;4940;50.900;4.672;2023-07-13T03:39:03;32.58;;;30.30;;
9801;SDS011;4940;50.900;4.672;2023-07-13T03:41:33;35.83;;;33.10;;
9801;SDS011;4940;50.900;4.672;2023-07-13T03:44:01;34.10;;;31.77;;
9801;SDS011;4940;50.900;4.672;2023-07-13T03:46:28;33.88;;;31.58;;
9801;SDS011;4940;50.900;4.672;2023-07-13T03:48:55;34.10;;;31.75;;
9801;SDS011;4940;50.900;4.672;2023-07-13T03:51:23;31.73;;;29.60;;
9801;SDS011;4940;50.900;4.672;2023-07-13T03:53:50;27.73;;;25.75;;
9801;SDS011;4940;50.900;4.672;2023-07-13T03:56:19;32.38;;;29.80;;
9801;SDS011;4940;50.900;4.672;2023-07-13T03:58:47;31.02;;;28.83;;
9801;SDS011;4940;50.900;4.672;2023-07-13T04:01:16;31.30;;;29.08;;
9801;SDS011;4940;50.900;4.672;2023-07-13T04:03:45;28.85;;;26.60;;
9801;SDS011;4940;50.900;4.672;2023-07-13T04:06:14;31.90;;;29.70;;
9801;SDS011;4940;50.900;4.672;2023-07-13T04:08:46;28.27;;;26.30;;
9801;SDS011;4940;50.900;4.672;2023-07-13T04:11:15;28.35;;;26.13;;
9801;SDS011;4940;50.900;4.672;2023-07-13T04:13:43;28.63;;;26.73;;
9801;SDS011;4940;50.900;4.672;2023-07-13T04:16:11;26.88;;;24.80;;
9801;SDS011;4940;50.900;4.672;2023-07-13T04:18:38;27.33;;;25.42;;
9801;SDS011;4940;50.900;4.672;2023-07-13T04:21:06;26.85;;;24.85;;
9801;SDS011;4940;50.900;4.672;2023-07-13T04:23:34;28.08;;;25.92;;
9801;SDS011;4940;50.900;4.672;2023-07-13T04:26:02;27.08;;;24.85;;
9801;SDS011;4940;50.900;4.672;2023-07-13T04:28:29;26.83;;;24.85;;
9801;SDS011;4940;50.900;4.672;2023-07-13T04:30:58;27.27;;;25.27;;
9801;SDS011;4940;50.900;4.672;2023-07-13T04:33:25;27.90;;;25.70;;
9801;SDS011;4940;50.900;4.672;2023-07-13T04:35:53;27.40;;;25.10;;
9801;SDS011;4940;50.900;4.672;2023-07-13T04:38:22;28.35;;;26.17;;
9801;SDS011;4940;50.900;4.672;2023-07-13T04:40:53;26.98;;;24.85;;
9801;SDS011;4940;50.900;4.672;2023-07-13T04:43:21;26.30;;;24.60;;
9801;SDS011;4940;50.900;4.672;2023-07-13T04:45:49;26.17;;;24.42;;
9801;SDS011;4940;50.900;4.672;2023-07-13T04:48:18;27.40;;;25.58;;
9801;SDS011;4940;50.900;4.672;2023-07-13T04:50:46;27.90;;;25.70;;
9801;SDS011;4940;50.900;4.672;2023-07-13T04:53:15;26.38;;;24.60;;
9801;SDS011;4940;50.900;4.672;2023-07-13T04:55:42;26.48;;;24.63;;
9801;SDS011;4940;50.900;4.672;2023-07-13T04:58:09;26.40;;;24.60;;
9801;SDS011;4940;50.900;4.672;2023-07-13T05:00:37;25.85;;;24.05;;
9801;SDS011;4940;50.900;4.672;2023-07-13T05:03:05;28.05;;;26.05;;
9801;SDS011;4940;50.900;4.672;2023-07-13T05:05:33;26.70;;;24.75;;
9801;SDS011;4940;50.900;4.672;2023-07-13T05:08:01;27.48;;;25.27;;
9801;SDS011;4940;50.900;4.672;2023-07-13T05:10:28;27.50;;;25.40;;
9801;SDS011;4940;50.900;4.672;2023-07-13T05:12:55;26.10;;;24.30;;
9801;SDS011;4940;50.900;4.672;2023-07-13T05:15:23;25.65;;;24.02;;
9801;SDS011;4940;50.900;4.672;2023-07-13T05:17:51;26.10;;;24.40;;
9801;SDS011;4940;50.900;4.672;2023-07-13T05:20:18;26.92;;;24.92;;
9801;SDS011;4940;50.900;4.672;2023-07-13T05:22:47;26.20;;;24.10;;
9801;SDS011;4940;50.900;4.672;2023-07-13T05:25:15;26.65;;;24.73;;
9801;SDS011;4940;50.900;4.672;2023-07-13T05:27:43;28.40;;;26.15;;
9801;SDS011;4940;50.900;4.672;2023-07-13T05:30:12;26.40;;;24.38;;
9801;SDS011;4940;50.900;4.672;2023-07-13T05:32:40;27.67;;;25.23;;
9801;SDS011;4940;50.900;4.672;2023-07-13T05:35:07;27.13;;;24.70;;
9801;SDS011;4940;50.900;4.672;2023-07-13T05:37:34;26.02;;;24.23;;
9801;SDS011;4940;50.900;4.672;2023-07-13T05:40:05;25.30;;;23.40;;
9801;SDS011;4940;50.900;4.672;2023-07-13T05:42:34;26.02;;;23.92;;
9801;SDS011;4940;50.900;4.672;2023-07-13T05:45:01;26.25;;;24.10;;
9801;SDS011;4940;50.900;4.672;2023-07-13T05:47:29;24.45;;;22.63;;
9801;SDS011;4940;50.900;4.672;2023-07-13T05:49:56;24.48;;;22.75;;
9801;SDS011;4940;50.900;4.672;2023-07-13T05:52:23;24.33;;;22.63;;
9801;SDS011;4940;50.900;4.672;2023-07-13T05:54:51;23.02;;;21.38;;
9801;SDS011;4940;50.900;4.672;2023-07-13T05:57:19;25.13;;;22.92;;
9801;SDS011;4940;50.900;4.672;2023-07-13T05:59:47;22.67;;;21.17;;
9801;SDS011;4940;50.900;4.672;2023-07-13T06:02:14;22.80;;;21.00;;
9801;SDS011;4940;50.900;4.672;2023-07-13T06:04:41;22.77;;;20.85;;
9801;SDS011;4940;50.900;4.672;2023-07-13T06:07:09;21.95;;;20.02;;
9801;SDS011;4940;50.900;4.672;2023-07-13T06:09:36;21.70;;;19.92;;
9801;SDS011;4940;50.900;4.672;2023-07-13T06:12:04;19.95;;;18.45;;
9801;SDS011;4940;50.900;4.672;2023-07-13T06:14:33;20.55;;;18.98;;
9801;SDS011;4940;50.900;4.672;2023-07-13T06:17:00;20.15;;;18.67;;
9801;SDS011;4940;50.900;4.672;2023-07-13T06:19:28;19.88;;;18.30;;
9801;SDS011;4940;50.900;4.672;2023-07-13T06:21:55;19.05;;;17.60;;
9801;SDS011;4940;50.900;4.672;2023-07-13T06:24:23;17.90;;;16.73;;
9801;SDS011;4940;50.900;4.672;2023-07-13T06:26:51;17.88;;;16.45;;
9801;SDS011;4940;50.900;4.672;2023-07-13T06:29:18;16.17;;;14.65;;
9801;SDS011;4940;50.900;4.672;2023-07-13T06:31:47;15.50;;;14.10;;
9801;SDS011;4940;50.900;4.672;2023-07-13T06:34:14;15.63;;;14.15;;
9801;SDS011;4940;50.900;4.672;2023-07-13T06:36:41;15.80;;;14.40;;
9801;SDS011;4940;50.900;4.672;2023-07-13T06:39:08;15.70;;;14.07;;
9801;SDS011;4940;50.900;4.672;2023-07-13T06:41:36;13.00;;;11.90;;
9801;SDS011;4940;50.900;4.672;2023-07-13T06:44:04;13.18;;;11.98;;
9801;SDS011;4940;50.900;4.672;2023-07-13T06:46:31;11.98;;;10.95;;
9801;SDS011;4940;50.900;4.672;2023-07-13T06:49:00;11.52;;;8.73;;
9801;SDS011;4940;50.900;4.672;2023-07-13T06:51:27;10.30;;;8.98;;
9801;SDS011;4940;50.900;4.672;2023-07-13T06:53:55;9.02;;;7.90;;
9801;SDS011;4940;50.900;4.672;2023-07-13T06:56:22;10.55;;;7.40;;
9801;SDS011;4940;50.900;4.672;2023-07-13T06:58:49;7.13;;;6.43;;
9801;SDS011;4940;50.900;4.672;2023-07-13T07:01:17;9.90;;;4.63;;
9801;SDS011;4940;50.900;4.672;2023-07-13T07:03:44;6.72;;;4.45;;
9801;SDS011;4940;50.900;4.672;2023-07-13T07:06:15;8.75;;;3.85;;
9801;SDS011;4940;50.900;4.672;2023-07-13T07:08:44;8.65;;;3.53;;
9801;SDS011;4940;50.900;4.672;2023-07-13T07:11:11;5.40;;;2.70;;
9801;SDS011;4940;50.900;4.672;2023-07-13T07:13:40;7.03;;;3.05;;
9801;SDS011;4940;50.900;4.672;2023-07-13T07:16:07;5.43;;;2.72;;
9801;SDS011;4940;50.900;4.672;2023-07-13T07:18:35;8.18;;;2.97;;
9801;SDS011;4940;50.900;4.672;2023-07-13T07:21:02;5.75;;;2.53;;
9801;SDS011;4940;50.900;4.672;2023-07-13T07:23:31;7.75;;;2.88;;
9801;SDS011;4940;50.900;4.672;2023-07-13T07:25:58;5.93;;;2.38;;
9801;SDS011;4940;50.900;4.672;2023-07-13T07:28:26;6.47;;;2.47;;
9801;SDS011;4940;50.900;4.672;2023-07-13T07:30:54;8.63;;;2.38;;
9801;SDS011;4940;50.900;4.672;2023-07-13T07:33:22;5.35;;;2.33;;
9801;SDS011;4940;50.900;4.672;2023-07-13T07:35:49;6.20;;;2.45;;
9801;SDS011;4940;50.900;4.672;2023-07-13T07:38:17;6.32;;;2.40;;
9801;SDS011;4940;50.900;4.672;2023-07-13T07:40:46;8.27;;;2.67;;
9801;SDS011;4940;50.900;4.672;2023-07-13T07:43:13;5.25;;;1.90;;
9801;SDS011;4940;50.900;4.672;2023-07-13T07:45:40;8.02;;;2.50;;
9801;SDS011;4940;50.900;4.672;2023-07-13T07:48:08;3.65;;;2.20;;
9801;SDS011;4940;50.900;4.672;2023-07-13T07:50:35;7.72;;;2.88;;
9801;SDS011;4940;50.900;4.672;2023-07-13T07:53:04;5.00;;;2.13;;
9801;SDS011;4940;50.900;4.672;2023-07-13T07:55:32;6.18;;;2.20;;
9801;SDS011;4940;50.900;4.672;2023-07-13T07:58:01;5.38;;;1.98;;
9801;SDS011;4940;50.900;4.672;2023-07-13T08:00:29;5.57;;;2.00;;
9801;SDS011;4940;50.900;4.672;2023-07-13T08:02:57;3.63;;;2.05;;
9801;SDS011;4940;50.900;4.672;2023-07-13T08:05:25;4.88;;;2.15;;
9801;SDS011;4940;50.900;4.672;2023-07-13T08:07:52;5.50;;;2.30;;
9801;SDS011;4940;50.900;4.672;2023-07-13T08:10:19;5.97;;;1.90;;
9801;SDS011;4940;50.900;4.672;2023-07-13T08:12:47;7.97;;;2.40;;
9801;SDS011;4940;50.900;4.672;2023-07-13T08:15:16;8.23;;;2.33;;
9801;SDS011;4940;50.900;4.672;2023-07-13T08:17:45;6.85;;;2.40;;
9801;SDS011;4940;50.900;4.672;2023-07-13T08:20:13;3.15;;;2.10;;
9801;SDS011;4940;50.900;4.672;2023-07-13T08:22:41;4.60;;;2.00;;
9801;SDS011;4940;50.900;4.672;2023-07-13T08:25:08;4.47;;;1.90;;
9801;SDS011;4940;50.900;4.672;2023-07-13T08:27:35;7.50;;;2.00;;
9801;SDS011;4940;50.900;4.672;2023-07-13T08:30:03;5.05;;;1.90;;
9801;SDS011;4940;50.900;4.672;2023-07-13T08:32:35;3.63;;;2.30;;
9801;SDS011;4940;50.900;4.672;2023-07-13T08:35:03;3.47;;;1.85;;
9801;SDS011;4940;50.900;4.672;2023-07-13T08:37:31;6.63;;;2.20;;
9801;SDS011;4940;50.900;4.672;2023-07-13T08:39:58;5.15;;;1.88;;
9801;SDS011;4940;50.900;4.672;2023-07-13T08:42:29;3.17;;;1.90;;
9801;SDS011;4940;50.900;4.672;2023-07-13T08:45:13;3.42;;;1.98;;
9801;SDS011;4940;50.900;4.672;2023-07-13T08:47:46;5.93;;;1.90;;
9801;SDS011;4940;50.900;4.672;2023-07-13T08:50:17;6.15;;;1.90;;
9801;SDS011;4940;50.900;4.672;2023-07-13T08:52:47;4.78;;;1.80;;
9801;SDS011;4940;50.900;4.672;2023-07-13T08:55:15;4.45;;;2.10;;
9801;SDS011;4940;50.900;4.672;2023-07-13T08:57:45;5.93;;;2.15;;
9801;SDS011;4940;50.900;4.672;2023-07-13T09:00:17;4.15;;;1.90;;
9801;SDS011;4940;50.900;4.672;2023-07-13T09:02:50;4.07;;;2.05;;
9801;SDS011;4940;50.900;4.672;2023-07-13T09:05:22;4.35;;;1.75;;
9801;SDS011;4940;50.900;4.672;2023-07-13T09:08:00;2.95;;;1.83;;
9801;SDS011;4940;50.900;4.672;2023-07-13T09:10:36;5.57;;;2.17;;
9801;SDS011;4940;50.900;4.672;2023-07-13T09:13:14;5.70;;;2.17;;
9801;SDS011;4940;50.900;4.672;2023-07-13T09:15:50;3.15;;;1.90;;
9801;SDS011;4940;50.900;4.672;2023-07-13T09:18:21;7.20;;;2.22;;
9801;SDS011;4940;50.900;4.672;2023-07-13T09:20:54;6.43;;;2.30;;
9801;SDS011;4940;50.900;4.672;2023-07-13T09:23:26;3.30;;;1.75;;
9801;SDS011;4940;50.900;4.672;2023-07-13T09:26:05;4.20;;;1.88;;
9801;SDS011;4940;50.900;4.672;2023-07-13T09:28:38;7.53;;;2.20;;
9801;SDS011;4940;50.900;4.672;2023-07-13T09:31:09;5.22;;;2.40;;
9801;SDS011;4940;50.900;4.672;2023-07-13T09:33:40;3.80;;;1.95;;
9801;SDS011;4940;50.900;4.672;2023-07-13T09:36:16;3.83;;;2.20;;
9801;SDS011;4940;50.900;4.672;2023-07-13T09:38:45;4.50;;;2.05;;
9801;SDS011;4940;50.900;4.672;2023-07-13T09:41:17;3.53;;;2.22;;
9801;SDS011;4940;50.900;4.672;2023-07-13T09:46:36;4.20;;;1.98;;
9801;SDS011;4940;50.900;4.672;2023-07-13T09:49:05;3.25;;;1.80;;
9801;SDS011;4940;50.900;4.672;2023-07-13T09:51:35;5.53;;;2.30;;
9801;SDS011;4940;50.900;4.672;2023-07-13T09:54:03;5.65;;;2.15;;
9801;SDS011;4940;50.900;4.672;2023-07-13T09:56:30;2.60;;;1.80;;
9801;SDS011;4940;50.900;4.672;2023-07-13T09:58:58;2.22;;;1.98;;
9801;SDS011;4940;50.900;4.672;2023-07-13T10:01:33;3.38;;;2.00;;
9801;SDS011;4940;50.900;4.672;2023-07-13T10:04:02;4.88;;;2.08;;
9801;SDS011;4940;50.900;4.672;2023-07-13T10:06:39;2.15;;;1.73;;
9801;SDS011;4940;50.900;4.672;2023-07-13T10:09:08;4.45;;;2.05;;
9801;SDS011;4940;50.900;4.672;2023-07-13T10:11:36;3.00;;;1.92;;
9801;SDS011;4940;50.900;4.672;2023-07-13T10:14:10;2.90;;;1.63;;
9801;SDS011;4940;50.900;4.672;2023-07-13T10:16:41;3.15;;;1.88;;
9801;SDS011;4940;50.900;4.672;2023-07-13T10:19:12;4.97;;;1.80;;
9801;SDS011;4940;50.900;4.672;2023-07-13T10:21:49;3.83;;;1.90;;
9801;SDS011;4940;50.900;4.672;2023-07-13T10:24:20;2.88;;;2.35;;
9801;SDS011;4940;50.900;4.672;2023-07-13T10:26:52;6.95;;;2.05;;
9801;SDS011;4940;50.900;4.672;2023-07-13T10:29:24;2.63;;;2.17;;
9801;SDS011;4940;50.900;4.672;2023-07-13T10:31:53;2.33;;;1.83;;
9801;SDS011;4940;50.900;4.672;2023-07-13T10:34:23;3.40;;;2.00;;
9801;SDS011;4940;50.900;4.672;2023-07-13T10:36:51;2.47;;;1.90;;
9801;SDS011;4940;50.900;4.672;2023-07-13T10:39:20;5.25;;;2.42;;
9801;SDS011;4940;50.900;4.672;2023-07-13T10:41:50;5.60;;;2.10;;
9801;SDS011;4940;50.900;4.672;2023-07-13T10:44:21;3.22;;;2.00;;
9801;SDS011;4940;50.900;4.672;2023-07-13T10:46:52;3.63;;;2.00;;
9801;SDS011;4940;50.900;4.672;2023-07-13T10:49:22;6.20;;;2.08;;
9801;SDS011;4940;50.900;4.672;2023-07-13T10:51:53;2.63;;;2.03;;
9801;SDS011;4940;50.900;4.672;2023-07-13T10:54:20;2.90;;;1.90;;
9801;SDS011;4940;50.900;4.672;2023-07-13T10:56:53;2.60;;;1.90;;
9801;SDS011;4940;50.900;4.672;2023-07-13T10:59:34;5.25;;;2.00;;
9801;SDS011;4940;50.900;4.672;2023-07-13T11:02:09;2.60;;;1.70;;
9801;SDS011;4940;50.900;4.672;2023-07-13T11:04:40;3.92;;;1.90;;
9801;SDS011;4940;50.900;4.672;2023-07-13T11:07:10;2.38;;;1.90;;
9801;SDS011;4940;50.900;4.672;2023-07-13T11:09:49;2.20;;;1.52;;
9801;SDS011;4940;50.900;4.672;2023-07-13T11:12:27;3.70;;;1.70;;
9801;SDS011;4940;50.900;4.672;2023-07-13T11:15:10;5.53;;;1.80;;
9801;SDS011;4940;50.900;4.672;2023-07-13T11:17:49;4.00;;;1.95;;
9801;SDS011;4940;50.900;4.672;2023-07-13T11:20:31;4.47;;;2.10;;
9801;SDS011;4940;50.900;4.672;2023-07-13T11:23:08;3.15;;;1.65;;
9801;SDS011;4940;50.900;4.672;2023-07-13T11:25:44;3.05;;;1.45;;
9801;SDS011;4940;50.900;4.672;2023-07-13T11:28:22;3.42;;;2.10;;
9801;SDS011;4940;50.900;4.672;2023-07-13T11:30:59;3.63;;;2.00;;
9801;SDS011;4940;50.900;4.672;2023-07-13T11:33:43;3.47;;;1.90;;
9801;SDS011;4940;50.900;4.672;2023-07-13T11:36:19;2.20;;;1.63;;
9801;SDS011;4940;50.900;4.672;2023-07-13T11:38:51;2.47;;;1.70;;
9801;SDS011;4940;50.900;4.672;2023-07-13T11:41:26;2.42;;;1.58;;
9801;SDS011;4940;50.900;4.672;2023-07-13T11:43:55;2.40;;;1.60;;
9801;SDS011;4940;50.900;4.672;2023-07-13T11:46:29;2.63;;;1.55;;
9801;SDS011;4940;50.900;4.672;2023-07-13T11:48:56;3.83;;;1.63;;
9801;SDS011;4940;50.900;4.672;2023-07-13T11:51:25;1.85;;;1.65;;
9801;SDS011;4940;50.900;4.672;2023-07-13T11:53:56;3.28;;;1.58;;
9801;SDS011;4940;50.900;4.672;2023-07-13T11:56:26;2.75;;;1.60;;
9801;SDS011;4940;50.900;4.672;2023-07-13T11:58:54;2.08;;;1.88;;
9801;SDS011;4940;50.900;4.672;2023-07-13T12:01:24;1.77;;;1.65;;
9801;SDS011;4940;50.900;4.672;2023-07-13T12:03:57;2.15;;;1.50;;
9801;SDS011;4940;50.900;4.672;2023-07-13T12:06:28;2.40;;;2.10;;
9801;SDS011;4940;50.900;4.672;2023-07-13T12:08:57;2.00;;;1.63;;
9801;SDS011;4940;50.900;4.672;2023-07-13T12:11:26;1.98;;;1.73;;
9801;SDS011;4940;50.900;4.672;2023-07-13T12:13:54;2.92;;;1.52;;
9801;SDS011;4940;50.900;4.672;2023-07-13T12:16:23;1.70;;;1.52;;
9801;SDS011;4940;50.900;4.672;2023-07-13T12:18:55;2.08;;;1.50;;
9801;SDS011;4940;50.900;4.672;2023-07-13T12:21:24;3.20;;;1.63;;
9801;SDS011;4940;50.900;4.672;2023-07-13T12:23:57;4.05;;;1.65;;
9801;SDS011;4940;50.900;4.672;2023-07-13T12:26:27;5.32;;;1.92;;
9801;SDS011;4940;50.900;4.672;2023-07-13T12:28:56;3.60;;;1.75;;
9801;SDS011;4940;50.900;4.672;2023-07-13T12:31:29;5.07;;;1.50;;
9801;SDS011;4940;50.900;4.672;2023-07-13T12:34:00;2.50;;;1.67;;
9801;SDS011;4940;50.900;4.672;2023-07-13T12:36:33;2.95;;;1.60;;
9801;SDS011;4940;50.900;4.672;2023-07-13T12:39:04;10.02;;;1.70;;
9801;SDS011;4940;50.900;4.672;2023-07-13T12:41:38;3.00;;;1.58;;
9801;SDS011;4940;50.900;4.672;2023-07-13T12:44:09;3.10;;;1.80;;
9801;SDS011;4940;50.900;4.672;2023-07-13T12:46:38;3.90;;;1.73;;
9801;SDS011;4940;50.900;4.672;2023-07-13T12:49:06;3.05;;;1.67;;
9801;SDS011;4940;50.900;4.672;2023-07-13T12:51:35;2.83;;;1.92;;
9801;SDS011;4940;50.900;4.672;2023-07-13T12:54:12;2.00;;;1.80;;
9801;SDS011;4940;50.900;4.672;2023-07-13T12:56:42;2.88;;;1.60;;
9801;SDS011;4940;50.900;4.672;2023-07-13T12:59:15;1.65;;;1.55;;
9801;SDS011;4940;50.900;4.672;2023-07-13T13:01:45;1.88;;;1.30;;
9801;SDS011;4940;50.900;4.672;2023-07-13T13:04:14;1.52;;;1.30;;
9801;SDS011;4940;50.900;4.672;2023-07-13T13:06:48;3.47;;;1.42;;
9801;SDS011;4940;50.900;4.672;2023-07-13T13:09:15;2.05;;;1.33;;
9801;SDS011;4940;50.900;4.672;2023-07-13T13:11:45;2.05;;;1.40;;
9801;SDS011;4940;50.900;4.672;2023-07-13T13:14:13;4.25;;;1.40;;
9801;SDS011;4940;50.900;4.672;2023-07-13T13:16:44;1.85;;;1.30;;
9801;SDS011;4940;50.900;4.672;2023-07-13T13:19:15;2.20;;;1.60;;
9801;SDS011;4940;50.900;4.672;2023-07-13T13:21:48;7.25;;;1.60;;
9801;SDS011;4940;50.900;4.672;2023-07-13T13:24:19;2.90;;;2.00;;
9801;SDS011;4940;50.900;4.672;2023-07-13T13:26:48;2.95;;;2.00;;
9801;SDS011;4940;50.900;4.672;2023-07-13T13:29:17;2.65;;;1.90;;
9801;SDS011;4940;50.900;4.672;2023-07-13T13:31:46;2.03;;;1.80;;
9801;SDS011;4940;50.900;4.672;2023-07-13T13:34:14;1.75;;;1.65;;
9801;SDS011;4940;50.900;4.672;2023-07-13T13:36:43;2.88;;;1.90;;
9801;SDS011;4940;50.900;4.672;2023-07-13T13:39:18;3.55;;;2.05;;
9801;SDS011;4940;50.900;4.672;2023-07-13T13:41:48;2.30;;;1.70;;
9801;SDS011;4940;50.900;4.672;2023-07-13T13:44:16;5.50;;;1.50;;
9801;SDS011;4940;50.900;4.672;2023-07-13T13:46:45;1.70;;;1.45;;
9801;SDS011;4940;50.900;4.672;2023-07-13T13:49:15;2.88;;;1.60;;
9801;SDS011;4940;50.900;4.672;2023-07-13T13:51:46;1.60;;;1.45;;
9801;SDS011;4940;50.900;4.672;2023-07-13T13:54:13;3.53;;;1.38;;
9801;SDS011;4940;50.900;4.672;2023-07-13T13:56:44;3.13;;;1.63;;
9801;SDS011;4940;50.900;4.672;2023-07-13T13:59:12;1.73;;;1.20;;
9801;SDS011;4940;50.900;4.672;2023-07-13T14:01:39;1.70;;;1.40;;
9801;SDS011;4940;50.900;4.672;2023-07-13T14:04:08;2.25;;;1.50;;
9801;SDS011;4940;50.900;4.672;2023-07-13T14:06:41;1.63;;;1.42;;
9801;SDS011;4940;50.900;4.672;2023-07-13T14:09:09;2.47;;;1.40;;
9801;SDS011;4940;50.900;4.672;2023-07-13T14:11:38;1.70;;;1.38;;
9801;SDS011;4940;50.900;4.672;2023-07-13T14:14:09;2.83;;;1.70;;
9801;SDS011;4940;50.900;4.672;2023-07-13T14:16:43;2.10;;;1.50;;
9801;SDS011;4940;50.900;4.672;2023-07-13T14:19:12;3.38;;;1.38;;
9801;SDS011;4940;50.900;4.672;2023-07-13T14:21:40;2.05;;;1.40;;
9801;SDS011;4940;50.900;4.672;2023-07-13T14:24:08;2.63;;;1.60;;
9801;SDS011;4940;50.900;4.672;2023-07-13T14:26:36;1.65;;;1.40;;
9801;SDS011;4940;50.900;4.672;2023-07-13T14:29:10;1.40;;;1.30;;
9801;SDS011;4940;50.900;4.672;2023-07-13T14:31:40;2.90;;;2.13;;
9801;SDS011;4940;50.900;4.672;2023-07-13T14:34:07;3.05;;;1.52;;
9801;SDS011;4940;50.900;4.672;2023-07-13T14:36:36;2.35;;;1.40;;
9801;SDS011;4940;50.900;4.672;2023-07-13T14:39:10;2.95;;;1.30;;
9801;SDS011;4940;50.900;4.672;2023-07-13T14:41:38;3.55;;;1.70;;
9801;SDS011;4940;50.900;4.672;2023-07-13T14:44:14;1.67;;;1.58;;
9801;SDS011;4940;50.900;4.672;2023-07-13T14:46:42;1.77;;;1.55;;
9801;SDS011;4940;50.900;4.672;2023-07-13T14:49:13;6.32;;;1.75;;
9801;SDS011;4940;50.900;4.672;2023-07-13T14:51:46;7.38;;;1.80;;
9801;SDS011;4940;50.900;4.672;2023-07-13T14:54:13;3.97;;;1.63;;
9801;SDS011;4940;50.900;4.672;2023-07-13T14:56:41;6.60;;;1.77;;
9801;SDS011;4940;50.900;4.672;2023-07-13T14:59:08;1.75;;;1.20;;
9801;SDS011;4940;50.900;4.672;2023-07-13T15:01:37;2.17;;;1.55;;
9801;SDS011;4940;50.900;4.672;2023-07-13T15:04:06;3.72;;;1.98;;
9801;SDS011;4940;50.900;4.672;2023-07-13T15:06:39;3.13;;;1.50;;
9801;SDS011;4940;50.900;4.672;2023-07-13T15:09:20;1.67;;;1.50;;
9801;SDS011;4940;50.900;4.672;2023-07-13T15:11:47;3.67;;;1.63;;
9801;SDS011;4940;50.900;4.672;2023-07-13T15:14:14;2.60;;;1.55;;
9801;SDS011;4940;50.900;4.672;2023-07-13T15:16:43;3.00;;;1.55;;
9801;SDS011;4940;50.900;4.672;2023-07-13T15:19:11;3.25;;;1.80;;
9801;SDS011;4940;50.900;4.672;2023-07-13T15:21:39;2.63;;;1.50;;